Time;durP1;ratioP1;P1;durP2;ratioP2;P2;SDS_P1;SDS_P2;PMS_P1;PMS_P2;Temp;Humidity;BMP_temperature;BMP_pressure;BME280_temperature;BME280_humidity;BME280_pressure;Samples;Min_cycle;Max_cycle;Signal;HPM_P1;HPM_P2
2023/04/04 00:10:27;;;;;;;;;;;7.70;71.00;;;;;;6131183;23;19957;-96
2023/04/04 02:32:41;;;;;;;;;;;7.10;56.00;;;;;;6032910;23;19927;-96
2023/04/04 02:35:16;;;;;;;;;;;7.00;56.50;;;;;;6006482;23;19927;-96
2023/04/04 03:29:45;;;;;;;;;;;6.40;53.30;;;;;;6109307;23;19930;-96
2023/04/04 03:35:36;;;;;;;;;;;6.40;53.40;;;;;;6067627;23;19901;-96
2023/04/04 03:38:16;;;;;;;;;;;6.40;54.10;;;;;;6043300;23;19913;-96
2023/04/04 03:40:51;;;;;;;;;;;6.40;54.40;;;;;;6043665;23;19918;-96
2023/04/04 03:43:44;;;;;;;;;;;6.40;54.00;;;;;;6047566;23;19910;-96
2023/04/04 03:46:11;;;;;;;;;;;6.40;53.90;;;;;;6067068;23;19910;-96
2023/04/04 03:48:41;;;;;;;;;;;6.40;54.00;;;;;;6042496;23;19894;-96
2023/04/04 03:51:31;;;;;;;;;;;6.30;53.70;;;;;;6066025;23;19934;-96
2023/04/04 03:54:03;;;;;;;;;;;6.30;53.90;;;;;;6042441;23;19901;-96
2023/04/04 03:56:36;;;;;;;;;;;6.20;54.20;;;;;;6039068;23;19894;-96
2023/04/04 03:59:07;;;;;;;;;;;6.30;54.30;;;;;;6066515;23;19917;-96
2023/04/04 04:01:45;;;;;;;;;;;6.20;54.60;;;;;;6046807;23;19908;-96
2023/04/04 04:04:13;;;;;;;;;;;6.20;54.30;;;;;;6069814;23;19962;-96
2023/04/04 04:07:03;;;;;;;;;;;6.20;54.50;;;;;;6138502;23;19888;-95
2023/04/04 04:09:32;;;;;;;;;;;6.20;54.10;;;;;;6183693;23;19928;-96
2023/04/04 04:12:28;;;;;;;;;;;6.20;53.70;;;;;;6183616;23;19911;-96
2023/04/04 04:15:05;;;;;;;;;;;6.10;53.90;;;;;;6159156;23;19909;-96
2023/04/04 04:17:33;;;;;;;;;;;6.10;53.40;;;;;;6158295;23;19913;-96
2023/04/04 04:20:08;;;;;;;;;;;6.00;53.40;;;;;;6183857;23;19895;-96
2023/04/04 04:22:38;;;;;;;;;;;5.90;53.20;;;;;;6134017;23;19915;-96
2023/04/04 04:25:06;;;;;;;;;;;5.90;53.50;;;;;;6154499;23;19896;-96
2023/04/04 04:27:33;;;;;;;;;;;5.80;54.00;;;;;;6158280;23;19908;-96
2023/04/04 04:30:05;;;;;;;;;;;5.60;53.70;;;;;;6151822;23;19913;-96
2023/04/04 04:32:36;;;;;;;;;;;5.60;53.50;;;;;;6153471;23;19913;-96
2023/04/04 04:35:04;;;;;;;;;;;5.50;53.40;;;;;;6177575;23;19889;-96
2023/04/04 04:37:31;;;;;;;;;;;5.50;53.20;;;;;;6153650;23;19928;-96
2023/04/04 04:40:00;;;;;;;;;;;5.50;53.10;;;;;;6152460;23;19889;-96
2023/04/04 04:42:28;;;;;;;;;;;5.40;52.90;;;;;;6175961;23;20315;-96
2023/04/04 04:44:54;;;;;;;;;;;5.40;52.60;;;;;;6177131;23;19915;-96
2023/04/04 04:47:21;;;;;;;;;;;5.30;52.70;;;;;;6175550;23;19905;-96
2023/04/04 04:49:48;;;;;;;;;;;5.30;52.40;;;;;;6126567;23;19974;-96
2023/04/04 04:52:20;;;;;;;;;;;5.20;53.10;;;;;;6152065;23;19905;-96
2023/04/04 04:54:49;;;;;;;;;;;5.20;52.70;;;;;;6174753;23;19929;-96
2023/04/04 04:57:16;;;;;;;;;;;5.20;53.00;;;;;;6172939;23;19896;-96
2023/04/04 04:59:43;;;;;;;;;;;5.20;52.60;;;;;;6123472;23;19916;-96
2023/04/04 05:02:09;;;;;;;;;;;5.20;52.90;;;;;;6124343;23;19948;-96
2023/04/04 05:04:35;;;;;;;;;;;5.20;52.40;;;;;;6149172;23;19953;-96
2023/04/04 05:07:02;;;;;;;;;;;5.20;52.10;;;;;;6122771;23;19909;-96
2023/04/04 05:09:28;;;;;;;;;;;5.20;53.30;;;;;;6172836;23;19921;-96
2023/04/04 05:11:55;;;;;;;;;;;5.40;53.70;;;;;;6148978;23;19915;-96
2023/04/04 05:14:21;;;;;;;;;;;5.70;52.60;;;;;;6122499;23;19905;-96
2023/04/04 05:16:47;;;;;;;;;;;5.70;52.00;;;;;;6121897;23;19905;-95
2023/04/04 05:19:13;;;;;;;;;;;5.80;51.90;;;;;;6122370;23;19905;-96
2023/04/04 05:21:39;;;;;;;;;;;5.90;52.40;;;;;;6122475;23;19916;-96
2023/04/04 05:24:05;;;;;;;;;;;5.90;52.60;;;;;;6123604;23;19949;-96
2023/04/04 05:26:32;;;;;;;;;;;6.00;52.00;;;;;;6123948;23;19909;-96
2023/04/04 05:28:58;;;;;;;;;;;6.00;51.30;;;;;;6174118;23;19908;-96
2023/04/04 05:31:24;;;;;;;;;;;6.10;51.10;;;;;;6178266;23;19961;-96
2023/04/04 05:33:51;;;;;;;;;;;6.00;49.40;;;;;;6154425;23;19905;-96
2023/04/04 05:36:17;;;;;;;;;;;5.90;49.60;;;;;;6154292;23;19905;-96
2023/04/04 05:38:44;;;;;;;;;;;5.90;50.60;;;;;;6154976;23;19916;-96
2023/04/04 05:41:15;;;;;;;;;;;5.90;49.90;;;;;;6156511;23;19913;-96
2023/04/04 05:43:44;;;;;;;;;;;6.00;49.70;;;;;;6155157;23;19912;-96
2023/04/04 05:46:14;;;;;;;;;;;6.00;49.70;;;;;;6180626;23;19932;-96
2023/04/04 05:48:41;;;;;;;;;;;6.00;49.20;;;;;;6180662;23;19904;-96
2023/04/04 05:51:08;;;;;;;;;;;6.00;49.20;;;;;;6155155;23;19896;-96
2023/04/04 05:53:38;;;;;;;;;;;6.00;49.30;;;;;;6154811;23;19904;-96
2023/04/04 05:56:09;;;;;;;;;;;6.10;49.20;;;;;;6157822;23;19928;-96
2023/04/04 05:58:38;;;;;;;;;;;6.10;49.50;;;;;;6158160;23;19889;-96
2023/04/04 06:01:09;;;;;;;;;;;6.20;49.10;;;;;;6159955;23;19916;-96
2023/04/04 06:03:37;;;;;;;;;;;6.30;49.60;;;;;;6135967;23;19892;-96
2023/04/04 06:06:13;;;;;;;;;;;6.30;49.60;;;;;;6184339;23;19892;-96
2023/04/04 06:08:43;;;;;;;;;;;6.40;50.10;;;;;;6159967;23;19912;-96
2023/04/04 07:33:26;;;;;;;;;;;8.10;44.10;;;;;;6126665;23;19931;-96
2023/04/04 07:35:59;;;;;;;;;;;8.00;43.90;;;;;;6071955;23;19905;-96
2023/04/04 08:12:10;;;;;;;;;;;8.70;42.30;;;;;;6100029;23;19988;-96
2023/04/04 08:14:36;;;;;;;;;;;8.70;42.90;;;;;;6075290;23;20302;-96
2023/04/04 08:17:04;;;;;;;;;;;8.70;43.70;;;;;;6097401;23;19936;-96
2023/04/04 08:19:31;;;;;;;;;;;8.80;43.90;;;;;;6098155;23;19905;-96
2023/04/04 08:21:57;;;;;;;;;;;8.80;43.10;;;;;;6098356;23;19893;-96
2023/04/04 08:27:00;;;;;;;;;;;8.90;42.10;;;;;;6102493;23;19920;-96
2023/04/04 08:42:26;;;;;;;;;;;9.40;42.70;;;;;;6132115;23;19928;-96
2023/04/04 08:44:53;;;;;;;;;;;9.50;44.00;;;;;;6138072;23;19915;-95
2023/04/04 08:47:20;;;;;;;;;;;9.70;42.50;;;;;;6138000;23;19928;-94
2023/04/04 08:57:34;;;;;;;;;;;9.90;41.30;;;;;;6112500;23;19921;-96
2023/04/04 09:00:08;;;;;;;;;;;9.90;39.90;;;;;;6118281;23;19928;-96
2023/04/04 09:02:47;;;;;;;;;;;9.90;40.40;;;;;;6106449;23;19909;-96
2023/04/04 09:05:14;;;;;;;;;;;9.90;42.30;;;;;;6101843;23;19949;-96
2023/04/04 09:07:40;;;;;;;;;;;10.00;41.80;;;;;;6086643;23;19905;-96
2023/04/04 09:10:07;;;;;;;;;;;10.10;41.30;;;;;;6082096;23;19905;-96
2023/04/04 09:12:35;;;;;;;;;;;10.30;42.60;;;;;;6111478;23;19905;-96
2023/04/04 09:15:02;;;;;;;;;;;10.40;40.10;;;;;;6081428;23;19909;-96
2023/04/04 09:17:28;;;;;;;;;;;10.40;39.50;;;;;;6107353;23;19980;-95
2023/04/04 09:19:56;;;;;;;;;;;10.40;39.90;;;;;;6093356;23;19905;-96
2023/04/04 09:22:29;;;;;;;;;;;10.50;36.60;;;;;;6118551;23;19893;-96
2023/04/04 09:24:56;;;;;;;;;;;10.60;39.20;;;;;;6115756;23;19912;-96
2023/04/04 09:32:36;;;;;;;;;;;10.50;39.00;;;;;;6107307;23;19922;-96
2023/04/04 09:37:58;;;;;;;;;;;10.60;41.80;;;;;;6105565;23;19913;-96
2023/04/04 09:53:33;;;;;;;;;;;10.90;36.20;;;;;;6140141;23;19927;-96
2023/04/04 09:55:59;;;;;;;;;;;10.90;38.10;;;;;;6139106;23;19905;-96
2023/04/04 09:58:26;;;;;;;;;;;10.80;39.70;;;;;;6112647;23;19908;-96
2023/04/04 10:00:53;;;;;;;;;;;10.90;37.90;;;;;;6141217;23;20036;-96
2023/04/04 10:03:21;;;;;;;;;;;11.10;36.80;;;;;;6142784;23;19905;-96
2023/04/04 10:05:53;;;;;;;;;;;11.20;38.20;;;;;;6143574;23;19905;-96
2023/04/04 10:08:22;;;;;;;;;;;11.30;38.80;;;;;;6144480;23;19973;-96
2023/04/04 10:10:49;;;;;;;;;;;11.40;40.90;;;;;;6143220;23;19928;-96
2023/04/04 10:13:43;;;;;;;;;;;11.40;41.00;;;;;;6117573;23;19956;-96
2023/04/04 10:16:09;;;;;;;;;;;11.50;37.10;;;;;;6111367;23;19912;-96
2023/04/04 10:18:35;;;;;;;;;;;11.30;35.70;;;;;;6114453;23;19916;-96
2023/04/04 10:21:02;;;;;;;;;;;11.20;35.40;;;;;;6113360;23;19909;-96
2023/04/04 10:23:28;;;;;;;;;;;11.20;36.80;;;;;;6115403;23;19905;-96
2023/04/04 10:25:54;;;;;;;;;;;11.30;40.60;;;;;;6114081;23;19916;-96
2023/04/04 10:28:20;;;;;;;;;;;11.30;38.70;;;;;;6138676;23;19905;-96
2023/04/04 10:31:05;;;;;;;;;;;11.40;37.50;;;;;;6137286;23;19929;-96
2023/04/04 10:33:39;;;;;;;;;;;11.40;34.80;;;;;;6110020;23;20323;-96
2023/04/04 10:36:06;;;;;;;;;;;11.40;36.10;;;;;;6136375;23;19905;-96
2023/04/04 10:38:36;;;;;;;;;;;11.40;35.70;;;;;;6138035;23;19936;-96
2023/04/04 10:41:03;;;;;;;;;;;11.60;39.80;;;;;;6133920;23;19961;-96
2023/04/04 10:43:31;;;;;;;;;;;11.60;37.90;;;;;;6106612;23;20320;-96
2023/04/04 10:46:00;;;;;;;;;;;11.70;35.70;;;;;;6133873;23;19905;-96
2023/04/04 10:48:26;;;;;;;;;;;11.80;36.30;;;;;;6108927;23;19940;-96
2023/04/04 10:50:53;;;;;;;;;;;11.90;33.00;;;;;;6133512;23;19912;-96
2023/04/04 10:53:19;;;;;;;;;;;12.00;34.40;;;;;;6132820;23;19924;-96
2023/04/04 10:55:45;;;;;;;;;;;12.00;33.00;;;;;;6135595;23;19905;-96
2023/04/04 10:58:11;;;;;;;;;;;11.90;32.80;;;;;;6139055;23;19912;-96
2023/04/04 11:00:51;;;;;;;;;;;12.00;33.90;;;;;;6140586;23;19916;-96
2023/04/04 11:03:16;;;;;;;;;;;12.00;35.80;;;;;;6139630;23;19905;-96
2023/04/04 11:05:50;;;;;;;;;;;12.30;35.10;;;;;;6113193;23;20359;-96
2023/04/04 11:08:18;;;;;;;;;;;12.10;32.00;;;;;;6107501;23;19928;-96
2023/04/04 11:10:48;;;;;;;;;;;12.00;33.80;;;;;;6130724;23;19948;-96
2023/04/04 11:13:17;;;;;;;;;;;12.20;37.60;;;;;;6131643;23;19905;-96
2023/04/04 11:15:51;;;;;;;;;;;12.40;38.50;;;;;;6133452;23;19984;-96
2023/04/04 11:18:20;;;;;;;;;;;12.60;35.50;;;;;;6130155;23;19905;-96
2023/04/04 11:20:46;;;;;;;;;;;12.80;36.20;;;;;;6104219;23;20341;-96
2023/04/04 11:23:20;;;;;;;;;;;12.90;37.50;;;;;;6105880;23;19912;-96
2023/04/04 11:25:50;;;;;;;;;;;13.10;34.30;;;;;;6132005;23;19912;-96
2023/04/04 11:28:26;;;;;;;;;;;13.30;34.70;;;;;;6105201;23;19905;-96
2023/04/04 11:31:11;;;;;;;;;;;13.40;35.40;;;;;;6129930;23;20337;-96
2023/04/04 11:33:54;;;;;;;;;;;13.50;30.40;;;;;;6104870;23;19913;-96
2023/04/04 11:36:37;;;;;;;;;;;13.50;30.90;;;;;;6104831;23;19905;-96
2023/04/04 11:39:23;;;;;;;;;;;13.40;30.60;;;;;;6135102;23;19905;-96
2023/04/04 11:41:53;;;;;;;;;;;13.30;33.80;;;;;;6133987;23;19909;-96
2023/04/04 11:44:20;;;;;;;;;;;13.10;31.80;;;;;;6110010;23;19905;-96
2023/04/04 11:46:47;;;;;;;;;;;13.00;31.40;;;;;;6155290;23;19897;-96
2023/04/04 11:49:15;;;;;;;;;;;13.20;33.50;;;;;;6108157;23;19924;-96
2023/04/04 11:51:41;;;;;;;;;;;13.40;35.40;;;;;;6114970;23;19905;-95
2023/04/04 11:54:16;;;;;;;;;;;13.80;35.00;;;;;;6135245;23;19912;-95
2023/04/04 11:56:47;;;;;;;;;;;14.10;34.60;;;;;;6140458;23;19928;-96
2023/04/04 11:59:17;;;;;;;;;;;14.30;34.70;;;;;;6110705;23;19961;-96
2023/04/04 12:01:43;;;;;;;;;;;14.40;31.80;;;;;;6129022;23;19913;-96
2023/04/04 12:04:10;;;;;;;;;;;14.50;32.20;;;;;;6133236;23;19889;-96
2023/04/04 12:06:37;;;;;;;;;;;14.60;29.20;;;;;;6153371;23;19889;-96
2023/04/04 12:09:11;;;;;;;;;;;14.50;29.80;;;;;;6152534;23;19905;-96
2023/04/04 12:11:50;;;;;;;;;;;14.40;30.40;;;;;;6153232;23;19933;-96
2023/04/04 12:14:20;;;;;;;;;;;14.40;29.40;;;;;;6144342;23;19905;-96
2023/04/04 12:16:51;;;;;;;;;;;14.30;29.40;;;;;;6146394;23;19889;-96
2023/04/04 12:19:19;;;;;;;;;;;14.30;27.80;;;;;;6152054;23;19948;-96
2023/04/04 12:21:46;;;;;;;;;;;14.60;27.90;;;;;;6156315;23;19913;-96
2023/04/04 12:24:14;;;;;;;;;;;14.80;28.70;;;;;;6158185;23;19905;-96
2023/04/04 12:26:42;;;;;;;;;;;14.80;29.00;;;;;;6157046;23;19888;-96
2023/04/04 12:29:20;;;;;;;;;;;15.20;29.80;;;;;;6181741;23;19924;-96
2023/04/04 13:16:41;;;;;;;;;;;21.80;21.00;;;;;;6136336;23;19921;-96
2023/04/04 13:19:12;;;;;;;;;;;21.70;19.90;;;;;;6153407;23;19897;-96
2023/04/04 13:21:41;;;;;;;;;;;21.20;21.50;;;;;;6127222;23;19924;-98
2023/04/04 13:24:08;;;;;;;;;;;21.50;21.80;;;;;;6153508;23;19916;-96
2023/04/04 13:26:38;;;;;;;;;;;20.60;21.80;;;;;;6129146;23;19904;-96
2023/04/04 13:29:11;;;;;;;;;;;20.30;23.70;;;;;;6128382;23;19933;-96
2023/04/04 13:31:52;;;;;;;;;;;21.00;24.10;;;;;;6153200;23;19909;-96
2023/04/04 13:34:26;;;;;;;;;;;21.40;24.20;;;;;;6153545;23;19905;-97
2023/04/04 13:37:01;;;;;;;;;;;21.30;23.00;;;;;;6126115;23;19909;-97
2023/04/04 13:39:34;;;;;;;;;;;21.80;21.30;;;;;;6129446;23;19912;-97
2023/04/04 13:55:02;;;;;;;;;;;22.20;19.50;;;;;;6113019;23;19921;-96
2023/04/04 13:57:28;;;;;;;;;;;21.80;20.40;;;;;;6094718;23;19909;-96
2023/04/04 13:59:58;;;;;;;;;;;21.50;20.60;;;;;;6121651;23;19902;-96
2023/04/04 14:02:28;;;;;;;;;;;21.20;20.50;;;;;;6092655;23;19925;-96
2023/04/04 14:05:00;;;;;;;;;;;21.40;23.50;;;;;;6052530;23;19890;-97
2023/04/04 14:07:27;;;;;;;;;;;21.70;22.80;;;;;;6069266;23;19981;-96
2023/04/04 14:09:54;;;;;;;;;;;22.00;23.60;;;;;;6068376;23;19906;-96
2023/04/04 14:12:24;;;;;;;;;;;22.30;21.90;;;;;;6065793;23;19905;-96
2023/04/04 14:14:51;;;;;;;;;;;22.20;19.40;;;;;;6090118;23;19953;-96
2023/04/04 14:17:17;;;;;;;;;;;22.00;20.50;;;;;;6066802;23;19906;-96
2023/04/04 14:19:43;;;;;;;;;;;22.50;20.10;;;;;;6091311;23;19906;-96
2023/04/04 14:22:12;;;;;;;;;;;21.50;20.10;;;;;;6068203;23;19914;-96
2023/04/04 14:24:42;;;;;;;;;;;19.90;21.20;;;;;;6094423;23;19902;-97
2023/04/04 14:27:11;;;;;;;;;;;20.60;22.30;;;;;;6095480;23;19930;-96
2023/04/04 14:29:42;;;;;;;;;;;20.80;22.30;;;;;;6071126;23;19905;-96
2023/04/04 14:32:20;;;;;;;;;;;20.70;23.30;;;;;;6071647;23;19930;-96
2023/04/04 14:34:51;;;;;;;;;;;20.20;22.20;;;;;;6069304;23;19906;-96
2023/04/04 14:37:18;;;;;;;;;;;20.30;25.40;;;;;;6069950;23;19906;-96
2023/04/04 14:39:44;;;;;;;;;;;20.80;25.00;;;;;;6069101;23;19905;-96
2023/04/04 14:42:15;;;;;;;;;;;20.90;24.90;;;;;;6095062;23;19913;-96
2023/04/04 14:44:42;;;;;;;;;;;21.10;24.30;;;;;;6070616;23;19890;-96
2023/04/04 14:47:08;;;;;;;;;;;20.80;25.10;;;;;;6068036;23;19889;-97
2023/04/04 14:49:34;;;;;;;;;;;20.70;26.10;;;;;;6068631;23;19905;-96
2023/04/04 14:52:03;;;;;;;;;;;20.70;25.10;;;;;;6089467;23;19921;-96
2023/04/04 14:54:29;;;;;;;;;;;20.90;25.30;;;;;;6069777;23;19921;-96
2023/04/04 14:56:56;;;;;;;;;;;21.00;25.30;;;;;;6097071;23;19932;-96
2023/04/04 14:59:22;;;;;;;;;;;21.00;25.50;;;;;;6122115;23;19912;-96
2023/04/04 15:01:48;;;;;;;;;;;21.50;26.10;;;;;;6094604;23;19910;-96
2023/04/04 15:04:15;;;;;;;;;;;21.50;25.20;;;;;;6119186;23;19905;-96
2023/04/04 15:06:41;;;;;;;;;;;21.60;26.30;;;;;;6119257;23;19905;-96
2023/04/04 15:09:07;;;;;;;;;;;21.50;25.20;;;;;;6091100;23;19953;-96
2023/04/04 15:11:39;;;;;;;;;;;21.70;24.00;;;;;;6117791;23;19905;-96
2023/04/04 15:14:05;;;;;;;;;;;21.50;24.30;;;;;;6091115;23;19915;-96
2023/04/04 15:16:32;;;;;;;;;;;21.30;24.60;;;;;;6090985;23;19929;-96
2023/04/04 15:18:58;;;;;;;;;;;21.20;25.00;;;;;;6092273;23;19912;-96
2023/04/04 15:21:26;;;;;;;;;;;21.00;25.10;;;;;;6116920;23;19909;-96
2023/04/04 15:23:51;;;;;;;;;;;21.00;25.20;;;;;;6088836;23;19909;-96
2023/04/04 15:26:17;;;;;;;;;;;20.90;25.50;;;;;;6083654;23;19912;-96
2023/04/04 15:28:43;;;;;;;;;;;20.50;25.00;;;;;;6107919;23;19905;-96
2023/04/04 15:31:11;;;;;;;;;;;20.40;26.90;;;;;;6079115;23;20320;-96
2023/04/04 15:33:37;;;;;;;;;;;20.40;25.90;;;;;;6079782;23;20335;-96
2023/04/04 15:36:03;;;;;;;;;;;20.50;26.50;;;;;;6107076;23;19928;-96
2023/04/04 15:38:29;;;;;;;;;;;20.60;26.80;;;;;;6106940;23;20239;-96
2023/04/04 15:40:56;;;;;;;;;;;20.70;26.00;;;;;;6108237;23;19917;-96
2023/04/04 15:43:22;;;;;;;;;;;20.80;25.10;;;;;;6079740;23;19953;-96
2023/04/04 15:45:48;;;;;;;;;;;20.80;24.60;;;;;;6106980;23;19955;-96
2023/04/04 15:48:14;;;;;;;;;;;20.60;26.90;;;;;;6107385;23;20328;-96
2023/04/04 15:50:40;;;;;;;;;;;20.40;26.20;;;;;;6085512;23;19905;-96
2023/04/04 15:53:06;;;;;;;;;;;19.70;25.40;;;;;;6087545;23;19953;-96
2023/04/04 15:55:31;;;;;;;;;;;19.30;26.60;;;;;;6114491;23;19917;-96
2023/04/04 15:57:57;;;;;;;;;;;19.00;26.80;;;;;;6113407;23;19905;-96
2023/04/04 16:00:27;;;;;;;;;;;18.80;28.40;;;;;;6114430;23;19912;-96
2023/04/04 16:02:55;;;;;;;;;;;18.90;28.20;;;;;;6108237;23;19929;-96
2023/04/04 16:05:21;;;;;;;;;;;19.20;27.00;;;;;;6085710;23;19906;-96
2023/04/04 16:07:46;;;;;;;;;;;19.30;26.70;;;;;;6112729;23;20231;-96
2023/04/04 16:10:12;;;;;;;;;;;19.20;27.40;;;;;;6084600;23;19905;-96
2023/04/04 16:12:38;;;;;;;;;;;19.10;27.90;;;;;;6109257;23;19921;-96
2023/04/04 16:15:04;;;;;;;;;;;19.10;27.90;;;;;;6106993;23;19906;-96
2023/04/04 16:17:30;;;;;;;;;;;18.80;27.50;;;;;;6108443;23;19906;-96
2023/04/04 16:19:56;;;;;;;;;;;18.70;27.70;;;;;;6107967;23;19912;-96
2023/04/04 16:22:21;;;;;;;;;;;18.30;28.30;;;;;;6082856;23;20280;-96
2023/04/04 16:24:47;;;;;;;;;;;18.20;27.60;;;;;;6107403;23;19905;-96
2023/04/04 16:27:13;;;;;;;;;;;17.90;29.40;;;;;;6082852;23;19905;-96
2023/04/04 16:29:38;;;;;;;;;;;18.00;29.70;;;;;;6105225;23;19912;-96
2023/04/04 16:32:06;;;;;;;;;;;18.00;29.10;;;;;;6080886;23;19905;-96
2023/04/04 16:34:32;;;;;;;;;;;17.90;27.90;;;;;;6106364;23;19905;-96
2023/04/04 16:36:58;;;;;;;;;;;17.80;29.50;;;;;;6108777;23;19988;-96
2023/04/04 16:39:24;;;;;;;;;;;17.60;28.90;;;;;;6107853;23;19906;-96
2023/04/04 16:41:50;;;;;;;;;;;17.20;29.80;;;;;;6106581;23;19944;-96
2023/04/04 16:44:15;;;;;;;;;;;17.00;30.00;;;;;;6105642;23;19906;-96
2023/04/04 16:46:41;;;;;;;;;;;16.90;30.70;;;;;;6107836;23;20284;-96
2023/04/04 16:49:09;;;;;;;;;;;16.90;30.80;;;;;;6108069;23;20746;-96
2023/04/04 16:51:35;;;;;;;;;;;16.80;30.50;;;;;;6107446;23;19909;-96
2023/04/04 16:54:01;;;;;;;;;;;16.40;30.90;;;;;;6081371;23;19912;-96
2023/04/04 16:56:26;;;;;;;;;;;16.30;31.60;;;;;;6108642;23;19913;-96
2023/04/04 16:58:52;;;;;;;;;;;16.10;31.30;;;;;;6108021;23;19913;-96
2023/04/04 17:01:21;;;;;;;;;;;15.80;32.70;;;;;;6080551;23;19909;-96
2023/04/04 17:03:50;;;;;;;;;;;15.80;32.70;;;;;;6111181;23;19945;-96
2023/04/04 17:06:15;;;;;;;;;;;15.60;33.30;;;;;;6088009;23;19933;-96
2023/04/04 17:08:42;;;;;;;;;;;15.40;33.30;;;;;;6087801;23;19906;-96
2023/04/04 17:11:08;;;;;;;;;;;15.20;33.30;;;;;;6113645;23;19912;-96
2023/04/04 17:13:34;;;;;;;;;;;15.00;33.60;;;;;;6089834;23;19905;-96
2023/04/04 17:16:00;;;;;;;;;;;14.90;33.60;;;;;;6088242;23;19912;-96
2023/04/04 17:18:26;;;;;;;;;;;14.70;34.30;;;;;;6087312;23;19909;-96
2023/04/04 17:20:51;;;;;;;;;;;14.40;34.90;;;;;;6113713;23;19909;-96
2023/04/04 17:23:17;;;;;;;;;;;14.30;35.40;;;;;;6087538;23;19929;-96
2023/04/04 17:25:43;;;;;;;;;;;14.00;35.60;;;;;;6113970;23;19906;-96
2023/04/04 17:28:09;;;;;;;;;;;13.80;35.70;;;;;;6112696;23;19930;-96
2023/04/04 17:30:34;;;;;;;;;;;13.50;36.90;;;;;;6111779;23;20027;-96
2023/04/04 17:33:00;;;;;;;;;;;13.30;36.50;;;;;;6113546;23;20231;-96
2023/04/04 17:35:26;;;;;;;;;;;13.00;36.80;;;;;;6113513;23;19905;-96
2023/04/04 17:37:52;;;;;;;;;;;12.90;38.00;;;;;;6089260;23;20240;-96
2023/04/04 17:40:18;;;;;;;;;;;12.60;38.30;;;;;;6112616;23;19906;-96
2023/04/04 17:42:44;;;;;;;;;;;12.50;37.90;;;;;;6091107;23;19905;-96
2023/04/04 17:45:10;;;;;;;;;;;12.40;38.30;;;;;;6114094;23;20213;-96
2023/04/04 17:47:36;;;;;;;;;;;12.30;38.70;;;;;;6089968;23;19916;-96
2023/04/04 17:50:02;;;;;;;;;;;12.10;38.70;;;;;;6114187;23;19913;-96
2023/04/04 17:52:28;;;;;;;;;;;11.90;39.20;;;;;;6089929;23;19905;-96
2023/04/04 17:54:54;;;;;;;;;;;11.80;40.00;;;;;;6116954;23;19926;-96
2023/04/04 17:57:20;;;;;;;;;;;11.60;40.00;;;;;;6119747;23;19990;-96
2023/04/04 17:59:48;;;;;;;;;;;11.50;40.00;;;;;;6093970;23;19909;-96
2023/04/04 18:02:15;;;;;;;;;;;11.40;40.20;;;;;;6091705;23;19937;-96
2023/04/04 18:04:41;;;;;;;;;;;11.20;40.60;;;;;;6116064;23;19913;-96
2023/04/04 18:07:07;;;;;;;;;;;11.00;40.90;;;;;;6091319;23;19905;-96
2023/04/04 18:09:33;;;;;;;;;;;10.90;42.10;;;;;;6118865;23;19956;-96
2023/04/04 18:11:59;;;;;;;;;;;10.80;45.10;;;;;;6119452;23;19906;-96
2023/04/04 18:14:25;;;;;;;;;;;10.70;46.80;;;;;;6118230;23;19916;-96
2023/04/04 18:16:51;;;;;;;;;;;10.60;47.30;;;;;;6118224;23;19913;-96
2023/04/04 18:19:17;;;;;;;;;;;10.20;47.20;;;;;;6092913;23;19906;-96
2023/04/04 18:21:47;;;;;;;;;;;10.10;47.20;;;;;;6117446;23;19916;-96
2023/04/04 18:24:13;;;;;;;;;;;10.00;47.40;;;;;;6094657;23;19905;-96
2023/04/04 18:26:39;;;;;;;;;;;9.90;49.30;;;;;;6094061;23;19920;-96
2023/04/04 18:29:07;;;;;;;;;;;9.90;48.40;;;;;;6096525;23;19912;-96
2023/04/04 18:31:34;;;;;;;;;;;10.10;50.50;;;;;;6121063;23;19912;-96
2023/04/04 18:34:00;;;;;;;;;;;10.00;51.00;;;;;;6122256;23;19906;-96
2023/04/04 18:36:26;;;;;;;;;;;9.90;51.20;;;;;;6097034;23;19920;-96
2023/04/04 18:38:52;;;;;;;;;;;9.80;51.30;;;;;;6098449;23;19905;-97
2023/04/04 18:41:19;;;;;;;;;;;9.80;49.20;;;;;;6099026;23;19940;-96
2023/04/04 18:43:45;;;;;;;;;;;9.80;48.20;;;;;;6097982;23;19925;-96
2023/04/04 18:46:11;;;;;;;;;;;9.70;48.60;;;;;;6096567;23;19905;-96
2023/04/04 18:48:38;;;;;;;;;;;9.60;48.10;;;;;;6122086;23;19930;-96
2023/04/04 18:51:04;;;;;;;;;;;9.50;48.00;;;;;;6121489;23;19929;-96
2023/04/04 18:53:30;;;;;;;;;;;9.50;48.30;;;;;;6096221;23;19905;-96
2023/04/04 18:55:56;;;;;;;;;;;9.50;49.20;;;;;;6094309;23;19940;-96
2023/04/04 18:58:23;;;;;;;;;;;9.60;49.30;;;;;;6092673;23;19905;-96
2023/04/04 19:00:51;;;;;;;;;;;9.60;52.80;;;;;;6093072;23;19913;-96
2023/04/04 19:03:17;;;;;;;;;;;9.60;51.00;;;;;;6094696;23;19935;-96
2023/04/04 19:05:45;;;;;;;;;;;9.50;48.50;;;;;;6095344;23;19906;-96
2023/04/04 19:08:12;;;;;;;;;;;9.60;49.40;;;;;;6093738;23;19912;-96
2023/04/04 19:10:40;;;;;;;;;;;9.40;52.50;;;;;;6118855;23;19957;-96
2023/04/04 19:13:06;;;;;;;;;;;9.30;59.00;;;;;;6093837;23;19932;-96
2023/04/04 19:15:33;;;;;;;;;;;9.10;60.10;;;;;;6092586;23;19906;-96
2023/04/04 19:17:59;;;;;;;;;;;8.80;60.50;;;;;;6117277;23;19913;-96
2023/04/04 19:20:25;;;;;;;;;;;8.70;60.30;;;;;;6092307;23;19905;-96
2023/04/04 19:22:51;;;;;;;;;;;8.70;61.70;;;;;;6091645;23;19906;-96
2023/04/04 19:25:17;;;;;;;;;;;8.60;60.60;;;;;;6091080;23;19992;-96
2023/04/04 19:27:42;;;;;;;;;;;8.40;63.20;;;;;;6088441;23;19989;-96
2023/04/04 19:30:32;;;;;;;;;;;8.10;62.90;;;;;;6089119;23;19905;-96
2023/04/04 19:32:58;;;;;;;;;;;8.10;63.70;;;;;;6089462;23;19913;-96
2023/04/04 19:35:43;;;;;;;;;;;8.10;64.00;;;;;;6087661;23;19909;-96
2023/04/04 19:38:11;;;;;;;;;;;8.10;62.90;;;;;;6114587;23;19910;-96
2023/04/04 19:40:46;;;;;;;;;;;8.20;60.10;;;;;;6090037;23;19910;-96
2023/04/04 19:43:20;;;;;;;;;;;8.20;59.20;;;;;;6092765;23;19905;-96
2023/04/04 19:45:50;;;;;;;;;;;8.30;59.40;;;;;;6090590;23;20295;-96
2023/04/04 19:48:34;;;;;;;;;;;8.30;61.40;;;;;;6115871;23;19909;-97
2023/04/04 19:51:03;;;;;;;;;;;8.10;63.50;;;;;;6115695;23;19929;-97
2023/04/04 19:53:29;;;;;;;;;;;8.20;59.80;;;;;;6085254;23;19906;-96
2023/04/04 19:55:55;;;;;;;;;;;8.20;57.50;;;;;;6116377;23;19917;-96
2023/04/04 19:58:21;;;;;;;;;;;8.10;56.80;;;;;;6084570;23;19929;-96
2023/04/04 20:00:47;;;;;;;;;;;8.10;60.80;;;;;;6074701;23;19940;-96
2023/04/04 20:03:27;;;;;;;;;;;7.90;62.30;;;;;;6090165;23;19905;-96
2023/04/04 20:05:53;;;;;;;;;;;7.70;63.80;;;;;;6087809;23;19906;-96
2023/04/04 20:08:19;;;;;;;;;;;7.20;66.10;;;;;;6079942;23;20228;-96
2023/04/04 20:10:45;;;;;;;;;;;6.80;67.70;;;;;;6107922;23;19913;-96
2023/04/04 20:13:12;;;;;;;;;;;6.70;69.30;;;;;;6110137;23;19949;-96
2023/04/04 20:15:41;;;;;;;;;;;6.60;71.20;;;;;;6084858;23;20339;-96
2023/04/04 20:18:07;;;;;;;;;;;6.60;70.30;;;;;;6109686;23;19925;-96
2023/04/04 20:20:52;;;;;;;;;;;6.70;69.50;;;;;;6111291;23;19913;-96
2023/04/04 20:23:17;;;;;;;;;;;6.80;68.70;;;;;;6087401;23;20367;-96
2023/04/04 20:25:43;;;;;;;;;;;6.80;69.60;;;;;;6110975;23;19905;-96
2023/04/04 20:28:19;;;;;;;;;;;6.70;70.50;;;;;;6086312;23;19930;-96
2023/04/04 20:30:44;;;;;;;;;;;6.60;71.10;;;;;;6086090;23;19957;-96
2023/04/04 20:33:29;;;;;;;;;;;6.40;70.60;;;;;;6110309;23;20329;-96
2023/04/04 20:35:54;;;;;;;;;;;6.40;71.40;;;;;;6110983;23;19941;-96
2023/04/04 20:38:20;;;;;;;;;;;6.40;71.40;;;;;;6085340;23;19913;-96
2023/04/04 20:40:46;;;;;;;;;;;6.40;71.10;;;;;;6083791;23;19913;-96
2023/04/04 20:43:11;;;;;;;;;;;6.50;70.40;;;;;;6085031;23;19905;-96
2023/04/04 20:45:41;;;;;;;;;;;6.40;70.30;;;;;;6112500;23;19913;-96
2023/04/04 20:48:07;;;;;;;;;;;6.30;69.50;;;;;;6086103;23;19905;-96
2023/04/04 20:50:32;;;;;;;;;;;6.30;68.10;;;;;;6085059;23;19906;-96
2023/04/04 20:52:59;;;;;;;;;;;6.30;69.10;;;;;;6111167;23;19969;-96
2023/04/04 20:55:26;;;;;;;;;;;6.30;69.40;;;;;;6085113;23;19920;-96
2023/04/04 20:57:53;;;;;;;;;;;6.10;69.60;;;;;;6082925;23;19912;-96
2023/04/04 21:00:27;;;;;;;;;;;6.10;68.90;;;;;;6108694;23;19912;-96
2023/04/04 21:02:53;;;;;;;;;;;6.20;69.90;;;;;;6107102;23;19936;-96
2023/04/04 21:05:35;;;;;;;;;;;6.10;71.40;;;;;;6083392;23;20312;-96
2023/04/04 21:08:01;;;;;;;;;;;6.00;70.70;;;;;;6109935;23;19906;-96
2023/04/04 21:10:27;;;;;;;;;;;6.00;70.20;;;;;;6109827;23;19960;-96
2023/04/04 21:12:56;;;;;;;;;;;5.90;70.10;;;;;;6109470;23;19906;-96
2023/04/04 21:15:27;;;;;;;;;;;6.00;70.20;;;;;;6108556;23;19906;-96
2023/04/04 21:17:57;;;;;;;;;;;5.90;70.80;;;;;;6109252;23;19912;-96
2023/04/04 21:20:42;;;;;;;;;;;5.90;72.00;;;;;;6108271;23;19913;-96
2023/04/04 21:23:08;;;;;;;;;;;5.90;71.80;;;;;;6109347;23;19905;-96
2023/04/04 21:25:43;;;;;;;;;;;5.90;71.40;;;;;;6108673;23;19980;-96
2023/04/04 21:28:10;;;;;;;;;;;5.90;72.50;;;;;;6108049;23;19912;-96
2023/04/04 21:30:41;;;;;;;;;;;5.90;70.50;;;;;;6108739;23;19906;-96
2023/04/04 21:33:16;;;;;;;;;;;5.90;70.00;;;;;;6083843;23;19909;-96
2023/04/04 21:35:46;;;;;;;;;;;5.90;71.50;;;;;;6108841;23;19929;-96